KMBL

Manistee Co-Blacker Airport

Manistee, Michigan, USA
KMBL 242328Z 2500/2524 14007KT P6SM SCT025 FM250400 16008KT P6SM VCSH OVC020 FM250800 19006KT P6SM VCSH OVC008 FM251500 21005KT P6SM BKN010 FM251700 21006KT P6SM BKN035
Issued Valid From Valid To
Sep-24 @ 23:28 UTC
(2 hours ago)
Sep-25 @ 00:00 UTC
(an hour ago)
Sep-26 @ 00:00 UTC
(in 23 hours)
Sep-25 @ 00:00 to Sep-25 @ 04:00
KMBL 242328Z 2500/2524 14007KT P6SM SCT025
Wind Visibility Clouds
140° at 7 knots Greater than 6 miles
  • Scattered at 2,500' AGL
From Sep-25 @ 04:00 to Sep-25 @ 08:00
FM250400 16008KT P6SM VCSH OVC020
Wind Visibility Clouds
160° at 8 knots Greater than 6 miles
  • Overcast at 2,000' AGL
From Sep-25 @ 08:00 to Sep-25 @ 15:00
FM250800 19006KT P6SM VCSH OVC008
Wind Visibility Clouds
190° at 6 knots Greater than 6 miles
  • Overcast at 800' AGL
From Sep-25 @ 15:00 to Sep-25 @ 17:00
FM251500 21005KT P6SM BKN010
Wind Visibility Clouds
210° at 5 knots Greater than 6 miles
  • Broken at 1,000' AGL
From Sep-25 @ 17:00 to Sep-26 @ 00:00
FM251700 21006KT P6SM BKN035
Wind Visibility Clouds
210° at 6 knots Greater than 6 miles
  • Broken at 3,500' AGL
KMBL 242328Z 2500/2524 14007KT P6SM SCT025 FM250400 16008KT P6SM VCSH OVC020 FM250800 19006KT P6SM VCSH OVC008 FM251500 21005KT P6SM BKN010 FM251700 21006KT P6SM BKN035
Issued Sep-24 @ 23:28 UTC
(2 hours ago)
Valid From Sep-25 @ 00:00 UTC
(an hour ago)
Valid To Sep-26 @ 00:00 UTC
(in 23 hours)
Sep-25 @ 00:00 - Sep-25 @ 04:00
Wind Visibility
140° at 7 knots Greater than 6 miles
Clouds
  • Scattered at 2,500' AGL
From Sep-25 @ 04:00 - Sep-25 @ 08:00
Wind Visibility
160° at 8 knots Greater than 6 miles
Clouds
  • Overcast at 2,000' AGL
From Sep-25 @ 08:00 - Sep-25 @ 15:00
Wind Visibility
190° at 6 knots Greater than 6 miles
Clouds
  • Overcast at 800' AGL
From Sep-25 @ 15:00 - Sep-25 @ 17:00
Wind Visibility
210° at 5 knots Greater than 6 miles
Clouds
  • Broken at 1,000' AGL
From Sep-25 @ 17:00 - Sep-26 @ 00:00
Wind Visibility
210° at 6 knots Greater than 6 miles
Clouds
  • Broken at 3,500' AGL